createdAt,value
2023-01-25T00:00:21.510Z,1.85
2023-01-25T00:02:53.096Z,1.92
2023-01-25T00:05:25.130Z,1.95
2023-01-25T00:07:56.609Z,1.94
2023-01-25T00:10:28.524Z,1.88
2023-01-25T00:13:00.073Z,1.88
2023-01-25T00:15:31.866Z,1.93
2023-01-25T00:18:03.349Z,1.91
2023-01-25T00:20:35.188Z,1.97
2023-01-25T00:23:09.784Z,1.96
2023-01-25T00:25:41.626Z,2.00
2023-01-25T00:28:13.092Z,2.02
2023-01-25T00:30:44.907Z,2.04
2023-01-25T00:33:16.378Z,1.91
2023-01-25T00:35:48.345Z,1.93
2023-01-25T00:38:19.844Z,2.01
2023-01-25T00:40:51.618Z,2.05
2023-01-25T00:43:23.097Z,2.09
2023-01-25T00:45:54.944Z,2.07
2023-01-25T00:48:26.492Z,2.03
2023-01-25T00:50:58.296Z,2.04
2023-01-25T00:53:29.883Z,2.14
2023-01-25T00:56:01.838Z,2.18
2023-01-25T00:58:33.329Z,2.21
2023-01-25T01:01:05.061Z,2.01
2023-01-25T01:03:36.609Z,1.97
2023-01-25T01:06:08.459Z,1.96
2023-01-25T01:08:39.938Z,2.06
2023-01-25T01:11:12.042Z,2.10
2023-01-25T01:13:43.534Z,2.10
2023-01-25T01:16:15.439Z,2.14
2023-01-25T01:18:47.080Z,2.16
2023-01-25T01:21:18.877Z,2.14
2023-01-25T01:23:50.415Z,2.13
2023-01-25T01:26:22.361Z,2.14
2023-01-25T01:28:53.860Z,2.07
2023-01-25T01:31:25.764Z,1.99
2023-01-25T01:33:58.281Z,2.00
2023-01-25T01:36:29.835Z,2.01
2023-01-25T01:39:01.367Z,2.06
2023-01-25T01:41:33.181Z,2.05
2023-01-25T01:44:04.677Z,2.08
2023-01-25T01:46:37.699Z,2.13
2023-01-25T01:49:09.227Z,2.15
2023-01-25T01:51:41.150Z,2.13
2023-01-25T01:54:12.649Z,2.06
2023-01-25T01:56:44.600Z,2.04
2023-01-25T01:59:16.271Z,2.07
2023-01-25T02:01:48.203Z,2.11
2023-01-25T02:04:19.713Z,2.07
2023-01-25T02:06:51.592Z,2.10
2023-01-25T02:09:23.078Z,2.12
2023-01-25T02:11:54.980Z,2.17
2023-01-25T02:14:26.482Z,2.22
2023-01-25T02:16:58.440Z,2.23
2023-01-25T02:19:29.915Z,2.20
2023-01-25T02:22:08.172Z,2.26
2023-01-25T02:24:39.803Z,2.32
2023-01-25T02:27:11.656Z,2.33
2023-01-25T02:29:43.131Z,2.30
2023-01-25T02:32:15.296Z,0.73
2023-01-25T02:34:46.798Z,2.30
2023-01-25T02:37:18.612Z,2.39
2023-01-25T02:39:50.142Z,2.43
2023-01-25T02:42:21.632Z,2.44
2023-01-25T02:44:53.117Z,2.46
2023-01-25T02:47:25.021Z,2.34
2023-01-25T02:49:56.523Z,2.23
2023-01-25T02:52:28.313Z,2.26
2023-01-25T02:54:59.816Z,2.28
2023-01-25T02:57:31.608Z,2.29
2023-01-25T03:00:03.078Z,2.27
2023-01-25T03:02:34.868Z,2.29
2023-01-25T03:05:06.657Z,2.37
2023-01-25T03:07:38.673Z,2.42
2023-01-25T03:10:10.175Z,2.45
2023-01-25T03:12:41.918Z,2.37
2023-01-25T03:15:13.436Z,2.19
2023-01-25T03:17:45.260Z,2.23
2023-01-25T03:20:16.773Z,2.27
2023-01-25T03:22:48.519Z,2.36
2023-01-25T03:25:20.017Z,2.37
2023-01-25T03:27:51.930Z,2.36
2023-01-25T03:30:23.506Z,2.32
2023-01-25T03:32:55.410Z,2.26
2023-01-25T03:35:26.958Z,2.24
2023-01-25T03:37:58.742Z,2.24
2023-01-25T03:40:30.215Z,2.16
2023-01-25T03:43:01.697Z,2.11
2023-01-25T03:45:33.192Z,2.14
2023-01-25T03:48:05.107Z,2.15
2023-01-25T03:50:36.979Z,2.26
2023-01-25T03:53:17.283Z,2.31
2023-01-25T03:55:50.407Z,2.18
2023-01-25T03:58:21.997Z,2.15
2023-01-25T04:00:54.124Z,2.07
2023-01-25T04:03:25.681Z,2.00
2023-01-25T04:05:57.630Z,2.10
2023-01-25T04:08:29.139Z,2.20
2023-01-25T04:11:01.122Z,2.26
2023-01-25T04:13:35.149Z,2.19
2023-01-25T04:16:07.146Z,2.07
2023-01-25T04:18:38.715Z,2.10
2023-01-25T04:21:10.587Z,2.10
2023-01-25T04:23:42.098Z,2.10
2023-01-25T04:26:14.685Z,2.09
2023-01-25T04:28:46.217Z,2.08
2023-01-25T04:31:18.141Z,1.99
2023-01-25T04:33:50.727Z,1.90
2023-01-25T04:36:23.359Z,1.91
2023-01-25T04:38:54.985Z,1.85
2023-01-25T04:41:29.575Z,1.76
2023-01-25T04:44:01.077Z,1.79
2023-01-25T04:46:32.882Z,1.70
2023-01-25T04:49:04.381Z,1.74
2023-01-25T04:51:38.997Z,1.88
2023-01-25T04:54:10.505Z,1.88
2023-01-25T04:56:42.311Z,1.81
2023-01-25T04:59:13.843Z,1.73
2023-01-25T05:01:45.615Z,1.74
2023-01-25T05:04:17.126Z,1.61
2023-01-25T05:06:48.970Z,1.70
2023-01-25T05:09:20.950Z,1.70
2023-01-25T05:11:52.703Z,1.72
2023-01-25T05:14:24.194Z,1.68
2023-01-25T05:16:56.110Z,1.71
2023-01-25T05:19:27.622Z,1.76
2023-01-25T05:21:59.633Z,1.68
2023-01-25T05:24:31.159Z,1.70
2023-01-25T05:27:05.872Z,1.71
2023-01-25T05:29:37.468Z,1.64
2023-01-25T05:32:09.408Z,1.66
2023-01-25T05:34:41.034Z,1.57
2023-01-25T05:37:12.869Z,1.52
2023-01-25T05:39:44.375Z,1.66
2023-01-25T05:42:16.132Z,1.61
2023-01-25T05:44:48.163Z,1.57
2023-01-25T05:47:20.029Z,1.54
2023-01-25T05:49:51.506Z,1.56
2023-01-25T05:52:23.505Z,1.66
2023-01-25T05:54:54.998Z,1.68
2023-01-25T05:57:29.080Z,1.63
2023-01-25T06:00:00.571Z,1.45
2023-01-25T06:02:33.468Z,1.59
2023-01-25T06:05:05.047Z,1.59
2023-01-25T06:07:36.630Z,1.57
2023-01-25T06:10:08.134Z,1.54
2023-01-25T06:12:40.439Z,1.58
2023-01-25T06:15:12.240Z,1.59
2023-01-25T06:17:44.120Z,1.58
2023-01-25T06:20:15.599Z,1.48
2023-01-25T06:22:47.558Z,1.39
2023-01-25T06:25:19.114Z,1.37
2023-01-25T06:27:50.899Z,1.39
2023-01-25T06:30:22.384Z,1.48
2023-01-25T06:32:54.165Z,1.39
2023-01-25T06:35:25.627Z,1.45
2023-01-25T06:37:57.426Z,1.35
2023-01-25T06:40:28.901Z,1.38
2023-01-25T06:43:00.680Z,1.40
2023-01-25T06:45:33.225Z,1.40
2023-01-25T06:48:05.129Z,1.34
2023-01-25T06:50:36.611Z,1.43
2023-01-25T06:53:08.664Z,1.37
2023-01-25T06:55:40.160Z,1.35
2023-01-25T06:58:11.894Z,1.31
2023-01-25T07:00:43.364Z,1.28
2023-01-25T07:03:15.025Z,1.28
2023-01-25T07:05:46.507Z,1.31
2023-01-25T07:08:19.014Z,1.26
2023-01-25T07:10:50.513Z,-0.44
2023-01-25T07:13:22.409Z,1.23
2023-01-25T07:15:53.973Z,1.29
2023-01-25T07:18:25.870Z,1.23
2023-01-25T07:20:57.345Z,1.25
2023-01-25T07:23:31.500Z,1.37
2023-01-25T07:26:03.086Z,1.44
2023-01-25T07:28:34.986Z,1.51
2023-01-25T07:31:06.529Z,1.45
2023-01-25T07:33:38.347Z,1.37
2023-01-25T07:36:09.865Z,1.29
2023-01-25T07:38:41.953Z,1.17
2023-01-25T07:41:13.465Z,1.04
2023-01-25T07:43:45.379Z,1.10
2023-01-25T07:46:17.196Z,1.10
2023-01-25T07:48:48.952Z,1.27
2023-01-25T07:51:23.451Z,1.28
2023-01-25T07:53:55.455Z,1.30
2023-01-25T07:56:26.951Z,1.15
2023-01-25T07:58:58.922Z,1.06
2023-01-25T08:01:32.111Z,1.09
2023-01-25T08:04:03.847Z,1.16
2023-01-25T08:06:46.466Z,1.17
2023-01-25T08:09:20.366Z,0.95
2023-01-25T08:11:53.498Z,0.99
2023-01-25T08:14:25.345Z,1.01
2023-01-25T08:16:56.860Z,0.85
2023-01-25T08:19:28.723Z,0.98
2023-01-25T08:22:00.199Z,0.99
2023-01-25T08:24:32.171Z,1.07
2023-01-25T08:27:03.947Z,1.22
2023-01-25T08:29:35.615Z,1.19
2023-01-25T08:32:08.338Z,1.18
2023-01-25T08:34:40.939Z,1.26
2023-01-25T08:37:12.684Z,1.35
2023-01-25T08:39:44.324Z,1.40
2023-01-25T08:42:16.184Z,1.20
2023-01-25T08:44:47.649Z,1.04
2023-01-25T08:47:19.572Z,1.10
2023-01-25T08:49:52.312Z,1.26
2023-01-25T08:52:24.310Z,1.23
2023-01-25T08:54:55.839Z,1.19
2023-01-25T08:57:27.489Z,1.12
2023-01-25T08:59:58.975Z,0.96
2023-01-25T09:02:30.987Z,1.10
2023-01-25T09:05:02.546Z,1.13
2023-01-25T09:07:38.798Z,1.00
2023-01-25T09:10:10.582Z,0.89
2023-01-25T09:12:42.605Z,0.99
2023-01-25T09:15:14.068Z,1.04
2023-01-25T09:17:45.993Z,1.00
2023-01-25T09:20:17.496Z,1.06
2023-01-25T09:22:49.444Z,1.22
2023-01-25T09:25:20.914Z,1.31
2023-01-25T09:27:52.436Z,1.42
2023-01-25T09:30:33.988Z,1.34
2023-01-25T09:33:16.651Z,1.30
2023-01-25T09:35:48.304Z,1.19
2023-01-25T09:38:20.266Z,1.47
2023-01-25T09:40:51.800Z,1.25
2023-01-25T09:43:23.655Z,1.15
2023-01-25T09:45:55.150Z,1.25
2023-01-25T09:48:27.585Z,1.38
2023-01-25T09:50:59.912Z,1.36
2023-01-25T09:53:32.432Z,1.33
2023-01-25T09:56:03.902Z,1.14
2023-01-25T09:58:35.830Z,1.14
2023-01-25T10:01:13.923Z,1.02
2023-01-25T10:03:45.799Z,1.14
2023-01-25T10:06:17.368Z,1.08
2023-01-25T10:08:49.256Z,1.02
2023-01-25T10:11:20.835Z,1.06
2023-01-25T10:13:52.720Z,1.29
2023-01-25T10:16:26.091Z,1.04
2023-01-25T10:18:57.961Z,1.03
2023-01-25T10:21:29.475Z,1.04
2023-01-25T10:24:01.330Z,1.21
2023-01-25T10:26:32.812Z,1.17
2023-01-25T10:29:04.958Z,1.30
2023-01-25T10:31:36.539Z,1.31
2023-01-25T10:34:08.465Z,1.28
2023-01-25T10:36:43.014Z,1.35
2023-01-25T10:39:14.777Z,1.31
2023-01-25T10:41:47.451Z,1.31
2023-01-25T10:44:22.720Z,1.17
2023-01-25T10:46:54.238Z,1.27
2023-01-25T10:49:26.106Z,1.14
2023-01-25T10:51:57.655Z,1.22
2023-01-25T10:54:30.302Z,1.35
2023-01-25T10:57:01.809Z,1.34
2023-01-25T10:59:33.621Z,1.26
2023-01-25T11:02:05.161Z,1.25
2023-01-25T11:04:37.251Z,1.25
2023-01-25T11:07:08.886Z,1.16
2023-01-25T11:09:40.710Z,1.07
2023-01-25T11:12:12.211Z,1.11
2023-01-25T11:14:43.992Z,0.98
2023-01-25T11:17:15.465Z,1.14
2023-01-25T11:19:47.312Z,0.97
2023-01-25T11:22:18.803Z,1.01
2023-01-25T11:24:50.690Z,1.13
2023-01-25T11:27:22.288Z,1.10
2023-01-25T11:29:53.813Z,1.12
2023-01-25T11:32:25.344Z,1.09
2023-01-25T11:34:57.093Z,1.18
2023-01-25T11:37:28.576Z,1.09
2023-01-25T11:40:00.515Z,1.07
2023-01-25T11:42:32.069Z,1.13
2023-01-25T11:45:04.105Z,1.22
2023-01-25T11:47:35.604Z,1.17
2023-01-25T11:50:07.529Z,1.39
2023-01-25T11:52:39.178Z,1.40
2023-01-25T11:55:10.981Z,1.48
2023-01-25T11:57:43.813Z,1.21
2023-01-25T12:00:16.652Z,1.16
2023-01-25T12:02:48.434Z,1.38
2023-01-25T12:05:22.178Z,1.29
2023-01-25T12:07:53.963Z,1.25
2023-01-25T12:10:25.990Z,1.00
2023-01-25T12:12:57.557Z,1.04
2023-01-25T12:15:29.428Z,1.25
2023-01-25T12:18:00.951Z,1.11
2023-01-25T12:20:33.005Z,1.03
2023-01-25T12:23:04.477Z,0.89
2023-01-25T12:25:36.287Z,0.92
2023-01-25T12:28:08.130Z,0.85
2023-01-25T12:30:41.244Z,0.93
2023-01-25T12:33:14.968Z,0.77
2023-01-25T12:35:47.197Z,0.82
2023-01-25T12:38:19.018Z,0.75
2023-01-25T12:40:50.538Z,0.98
2023-01-25T12:43:22.416Z,0.96
2023-01-25T12:45:53.914Z,0.90
2023-01-25T12:48:25.771Z,0.91
2023-01-25T12:50:57.397Z,0.99
2023-01-25T12:53:29.212Z,1.16
2023-01-25T12:56:00.776Z,1.09
2023-01-25T12:58:37.941Z,0.82
2023-01-25T13:01:09.811Z,0.78
2023-01-25T13:03:41.843Z,0.92
2023-01-25T13:06:13.368Z,0.94
2023-01-25T13:08:45.128Z,1.00
2023-01-25T13:11:17.189Z,1.00
2023-01-25T13:13:48.997Z,0.82
2023-01-25T13:16:20.484Z,0.93
2023-01-25T13:18:52.541Z,0.96
2023-01-25T13:21:24.061Z,0.76
2023-01-25T13:23:55.916Z,0.84
2023-01-25T13:26:28.429Z,0.83
2023-01-25T13:29:00.874Z,0.93
2023-01-25T13:31:46.405Z,0.89
2023-01-25T13:34:22.709Z,0.94
2023-01-25T13:36:54.214Z,0.98
2023-01-25T13:39:26.964Z,0.74
2023-01-25T13:41:58.530Z,0.89
2023-01-25T13:44:30.548Z,0.72
2023-01-25T13:47:02.032Z,0.67
2023-01-25T13:49:33.798Z,0.79
2023-01-25T13:52:05.355Z,0.88
2023-01-25T13:54:37.142Z,0.63
2023-01-25T13:57:08.928Z,0.78
2023-01-25T13:59:40.856Z,0.65
2023-01-25T14:02:12.514Z,0.62
2023-01-25T14:04:44.529Z,0.55
2023-01-25T14:07:16.007Z,0.70
2023-01-25T14:09:47.814Z,0.69
2023-01-25T14:12:19.314Z,0.87
2023-01-25T14:14:53.465Z,0.94
2023-01-25T14:17:24.958Z,0.95
2023-01-25T14:19:56.490Z,0.83
2023-01-25T14:22:28.114Z,0.73
2023-01-25T14:24:59.927Z,0.58
2023-01-25T14:27:31.423Z,0.70
2023-01-25T14:30:03.376Z,0.72
2023-01-25T14:32:36.860Z,0.76
2023-01-25T14:35:08.701Z,0.76
2023-01-25T14:37:40.252Z,0.77
2023-01-25T14:40:12.649Z,0.76
2023-01-25T14:42:44.231Z,0.67
2023-01-25T14:45:15.744Z,0.71
2023-01-25T14:47:58.260Z,0.56
2023-01-25T14:50:31.025Z,0.60
2023-01-25T14:53:02.501Z,0.52
2023-01-25T14:55:34.365Z,0.51
2023-01-25T14:58:08.412Z,0.44
2023-01-25T15:00:40.233Z,0.41
2023-01-25T15:03:11.872Z,0.36
2023-01-25T15:05:43.713Z,0.44
2023-01-25T15:08:15.711Z,0.32
2023-01-25T15:10:47.473Z,0.32
2023-01-25T15:13:18.967Z,0.48
2023-01-25T15:15:50.786Z,0.45
2023-01-25T15:18:22.272Z,0.40
2023-01-25T15:20:54.032Z,0.49
2023-01-25T15:23:25.595Z,0.61
2023-01-25T15:25:57.488Z,0.45
2023-01-25T15:28:29.022Z,0.52
2023-01-25T15:31:01.244Z,0.35
2023-01-25T15:33:32.835Z,0.44
2023-01-25T15:36:04.806Z,0.59
2023-01-25T15:38:36.276Z,0.46
2023-01-25T15:41:08.256Z,0.41
2023-01-25T15:43:39.835Z,0.36
2023-01-25T15:46:11.780Z,0.46
2023-01-25T15:48:43.349Z,0.58
2023-01-25T15:51:15.152Z,0.58
2023-01-25T15:53:47.102Z,0.49
2023-01-25T15:56:19.082Z,0.47
2023-01-25T15:58:50.606Z,0.53
2023-01-25T16:01:22.505Z,0.59
2023-01-25T16:03:54.001Z,0.49
2023-01-25T16:06:25.802Z,0.40
2023-01-25T16:08:58.702Z,0.58
2023-01-25T16:11:30.743Z,0.65
2023-01-25T16:14:02.224Z,0.52
2023-01-25T16:16:34.109Z,0.43
2023-01-25T16:19:05.611Z,0.49
2023-01-25T16:21:37.421Z,0.36
2023-01-25T16:24:09.040Z,0.55
2023-01-25T16:26:41.044Z,0.40
2023-01-25T16:29:12.975Z,0.35
2023-01-25T16:31:44.971Z,0.31
2023-01-25T16:34:16.538Z,0.25
2023-01-25T16:36:50.821Z,0.32
2023-01-25T16:39:22.470Z,0.22
2023-01-25T16:41:54.361Z,0.22
2023-01-25T16:44:26.268Z,0.09
2023-01-25T16:46:57.816Z,0.26
2023-01-25T16:49:30.979Z,0.34
2023-01-25T16:52:02.460Z,0.38
2023-01-25T16:54:34.403Z,0.35
2023-01-25T16:57:14.992Z,0.39
2023-01-25T16:59:51.269Z,0.44
2023-01-25T17:02:22.794Z,0.48
2023-01-25T17:04:54.718Z,0.42
2023-01-25T17:07:26.222Z,0.27
2023-01-25T17:09:57.725Z,0.29
2023-01-25T17:12:29.227Z,0.30
2023-01-25T17:15:01.270Z,0.22
2023-01-25T17:17:32.825Z,0.20
2023-01-25T17:20:05.243Z,0.18
2023-01-25T17:22:37.990Z,0.28
2023-01-25T17:25:09.894Z,0.24
2023-01-25T17:27:41.361Z,0.12
2023-01-25T17:30:13.116Z,0.07
2023-01-25T17:32:44.711Z,0.03
2023-01-25T17:35:16.427Z,0.14
2023-01-25T17:37:47.913Z,0.22
2023-01-25T17:40:20.034Z,0.04
2023-01-25T17:42:51.511Z,0.10
2023-01-25T17:45:23.350Z,0.14
2023-01-25T17:47:54.859Z,0.20
2023-01-25T17:50:26.717Z,0.26
2023-01-25T17:52:58.273Z,0.26
2023-01-25T17:55:30.120Z,0.12
2023-01-25T17:58:01.612Z,0.08
2023-01-25T18:00:33.628Z,-0.02
2023-01-25T18:03:05.130Z,0.07
2023-01-25T18:05:37.015Z,0.09
2023-01-25T18:08:08.509Z,0.05
2023-01-25T18:10:40.633Z,0.08
2023-01-25T18:13:12.101Z,0.13
2023-01-25T18:15:44.037Z,0.22
2023-01-25T18:18:15.530Z,0.21
2023-01-25T18:20:47.357Z,0.06
2023-01-25T18:23:18.831Z,0.17
2023-01-25T18:25:50.640Z,0.15
2023-01-25T18:28:22.190Z,0.31
2023-01-25T18:30:54.364Z,0.30
2023-01-25T18:33:25.969Z,0.25
2023-01-25T18:36:00.828Z,0.31
2023-01-25T18:38:34.039Z,0.32
2023-01-25T18:41:06.023Z,0.16
2023-01-25T18:43:37.523Z,0.08
2023-01-25T18:46:09.405Z,0.24
2023-01-25T18:48:41.056Z,0.03
2023-01-25T18:51:13.343Z,-0.06
2023-01-25T18:53:46.931Z,-0.12
2023-01-25T18:56:18.828Z,-0.04
2023-01-25T18:58:51.137Z,-0.19
2023-01-25T19:01:23.159Z,-0.01
2023-01-25T19:03:54.760Z,-0.06
2023-01-25T19:06:26.273Z,-0.06
2023-01-25T19:08:58.252Z,-0.09
2023-01-25T19:11:29.965Z,-0.14
2023-01-25T19:14:01.680Z,-0.18
2023-01-25T19:16:33.578Z,-0.15
2023-01-25T19:19:05.077Z,-0.18
2023-01-25T19:21:36.889Z,-0.11
2023-01-25T19:24:08.399Z,-0.21
2023-01-25T19:26:40.243Z,-0.20
2023-01-25T19:29:11.732Z,-0.21
2023-01-25T19:31:43.597Z,-0.33
2023-01-25T19:34:15.154Z,-0.22
2023-01-25T19:36:50.252Z,-0.24
2023-01-25T19:39:21.808Z,-0.14
2023-01-25T19:41:53.885Z,-0.11
2023-01-25T19:44:25.434Z,-0.13
2023-01-25T19:46:57.116Z,-0.01
2023-01-25T19:49:28.591Z,-0.07
2023-01-25T19:52:00.497Z,-0.08
2023-01-25T19:54:32.162Z,-0.02
2023-01-25T19:57:03.641Z,-0.08
2023-01-25T19:59:35.126Z,0.08
2023-01-25T20:02:06.955Z,0.11
2023-01-25T20:04:38.488Z,0.17
2023-01-25T20:07:10.345Z,0.21
2023-01-25T20:09:41.841Z,0.07
2023-01-25T20:12:13.473Z,0.09
2023-01-25T20:14:44.975Z,-0.08
2023-01-25T20:17:16.944Z,0.05
2023-01-25T20:19:50.234Z,-0.12
2023-01-25T20:22:22.019Z,-0.16
2023-01-25T20:24:53.603Z,-0.17
2023-01-25T20:27:25.490Z,-0.16
2023-01-25T20:29:57.025Z,0.05
2023-01-25T20:32:33.067Z,-0.13
2023-01-25T20:35:06.659Z,-0.11
2023-01-25T20:37:38.448Z,0.03
2023-01-25T20:40:09.917Z,0.05
2023-01-25T20:42:41.456Z,0.05
2023-01-25T20:47:46.347Z,0.16
2023-01-25T20:50:17.880Z,0.08
2023-01-25T20:52:49.727Z,0.11
2023-01-25T20:55:21.208Z,0.12
2023-01-25T20:57:54.320Z,0.17
2023-01-25T21:00:26.180Z,0.12
2023-01-25T21:02:57.973Z,0.24
2023-01-25T21:05:29.521Z,0.28
2023-01-25T21:08:01.406Z,-0.01
2023-01-25T21:10:32.922Z,-0.01
2023-01-25T21:13:04.506Z,0.13
2023-01-25T21:15:36.032Z,0.11
2023-01-25T21:18:07.866Z,0.07
2023-01-25T21:20:39.417Z,0.12
2023-01-25T21:23:11.216Z,0.10
2023-01-25T21:25:42.810Z,0.09
2023-01-25T21:28:14.312Z,0.02
2023-01-25T21:30:46.334Z,0.05
2023-01-25T21:33:17.844Z,0.17
2023-01-25T21:35:54.378Z,0.21
2023-01-25T21:38:26.077Z,0.23
2023-01-25T21:40:58.057Z,0.25
2023-01-25T21:43:29.631Z,0.08
2023-01-25T21:46:25.623Z,0.14
2023-01-25T21:49:15.807Z,0.09
2023-01-25T21:51:49.761Z,-0.07
2023-01-25T21:54:21.306Z,-0.17
2023-01-25T21:56:53.076Z,-0.20
2023-01-25T21:59:24.618Z,-0.19
2023-01-25T22:01:59.926Z,-0.11
2023-01-25T22:04:35.800Z,0.02
2023-01-25T22:07:07.692Z,-0.03
2023-01-25T22:09:39.394Z,0.06
2023-01-25T22:12:13.133Z,0.07
2023-01-25T22:14:44.807Z,-0.05
2023-01-25T22:17:16.798Z,-0.01
2023-01-25T22:19:48.413Z,-0.02
2023-01-25T22:22:20.317Z,-0.03
2023-01-25T22:24:51.924Z,0.00
2023-01-25T22:27:24.033Z,0.10
2023-01-25T22:29:55.604Z,0.05
2023-01-25T22:32:27.638Z,0.03
2023-01-25T22:34:59.708Z,0.04
2023-01-25T22:37:31.586Z,0.03
2023-01-25T22:40:03.248Z,0.08
2023-01-25T22:42:35.213Z,-0.02
2023-01-25T22:45:09.506Z,0.15
2023-01-25T22:47:42.225Z,0.17
2023-01-25T22:50:13.941Z,0.24
2023-01-25T22:52:45.536Z,0.22
2023-01-25T22:55:17.049Z,0.15
2023-01-25T22:57:48.629Z,-0.04
2023-01-25T23:00:20.826Z,-0.11
2023-01-25T23:02:52.740Z,-0.07
2023-01-25T23:05:24.250Z,0.00
2023-01-25T23:07:56.057Z,-0.05
2023-01-25T23:10:27.573Z,0.11
2023-01-25T23:12:59.711Z,-0.02
2023-01-25T23:15:31.231Z,0.08
2023-01-25T23:18:22.267Z,0.09
2023-01-25T23:20:54.982Z,-0.06
2023-01-25T23:23:27.037Z,-0.06
2023-01-25T23:26:01.640Z,-0.07
2023-01-25T23:28:33.464Z,-0.10
2023-01-25T23:31:12.225Z,-0.09
2023-01-25T23:33:43.760Z,0.04
2023-01-25T23:36:15.643Z,0.12
2023-01-25T23:38:47.266Z,-0.03
2023-01-25T23:41:19.089Z,-0.06
2023-01-25T23:43:50.818Z,0.01
2023-01-25T23:46:22.705Z,-0.01
2023-01-25T23:48:54.216Z,-0.06
2023-01-25T23:51:26.125Z,-0.02
2023-01-25T23:53:58.364Z,-0.06
2023-01-25T23:56:30.163Z,0.01
2023-01-25T23:59:01.694Z,0.02
